Terminal Aerodrome Forecast
Issued by NWS

Home | Current Version | Previous Version | Text Only | Print | Product List | Glossary On
Versions: 1 2 3 4 5 6 7 8 9 10 11 12 13 14 15 16 17 18 19
000
FTAK31 PANC 301022 AAA
TAFADL
TAF AMD
PADL 301022Z 3010/0106 11007KT P6SM SCT030
      TEMPO 3010/3012 BKN030
     FM301900 09014G21KT P6SM BKN045 WS020/17030KT=

USA.gov is the U.S. government's official web portal to all federal, state and local government web resources and services.